sensor_id;sensor_type;location;lat;lon;timestamp;P1;durP1;ratioP1;P2;durP2;ratioP2
10947;SDS011;5526;42.070;24.752;2023-04-05T00:02:26;1.05;;;1.05;;
10947;SDS011;5526;42.070;24.752;2023-04-05T00:04:56;1.58;;;1.20;;
10947;SDS011;5526;42.070;24.752;2023-04-05T00:07:24;1.33;;;1.30;;
10947;SDS011;5526;42.070;24.752;2023-04-05T00:09:52;1.40;;;1.40;;
10947;SDS011;5526;42.070;24.752;2023-04-05T00:12:19;1.20;;;1.15;;
10947;SDS011;5526;42.070;24.752;2023-04-05T00:14:46;1.20;;;1.20;;
10947;SDS011;5526;42.070;24.752;2023-04-05T00:17:13;1.33;;;1.33;;
10947;SDS011;5526;42.070;24.752;2023-04-05T00:19:41;1.30;;;1.25;;
10947;SDS011;5526;42.070;24.752;2023-04-05T00:22:10;1.33;;;1.23;;
10947;SDS011;5526;42.070;24.752;2023-04-05T00:24:37;1.83;;;1.73;;
10947;SDS011;5526;42.070;24.752;2023-04-05T00:27:06;1.90;;;1.80;;
10947;SDS011;5526;42.070;24.752;2023-04-05T00:29:33;1.60;;;1.50;;
10947;SDS011;5526;42.070;24.752;2023-04-05T00:32:00;1.55;;;1.50;;
10947;SDS011;5526;42.070;24.752;2023-04-05T00:34:28;1.67;;;1.65;;
10947;SDS011;5526;42.070;24.752;2023-04-05T00:36:56;1.70;;;1.60;;
10947;SDS011;5526;42.070;24.752;2023-04-05T00:39:25;1.50;;;1.40;;
10947;SDS011;5526;42.070;24.752;2023-04-05T00:41:52;1.45;;;1.45;;
10947;SDS011;5526;42.070;24.752;2023-04-05T00:44:20;1.60;;;1.50;;
10947;SDS011;5526;42.070;24.752;2023-04-05T00:46:47;1.75;;;1.65;;
10947;SDS011;5526;42.070;24.752;2023-04-05T00:49:14;1.90;;;1.80;;
10947;SDS011;5526;42.070;24.752;2023-04-05T00:51:41;1.55;;;1.45;;
10947;SDS011;5526;42.070;24.752;2023-04-05T00:54:10;1.83;;;1.73;;
10947;SDS011;5526;42.070;24.752;2023-04-05T00:56:38;1.80;;;1.70;;
10947;SDS011;5526;42.070;24.752;2023-04-05T00:59:06;1.90;;;1.80;;
10947;SDS011;5526;42.070;24.752;2023-04-05T01:01:33;1.92;;;1.83;;
10947;SDS011;5526;42.070;24.752;2023-04-05T01:04:04;1.70;;;1.60;;
10947;SDS011;5526;42.070;24.752;2023-04-05T01:06:35;2.20;;;2.08;;
10947;SDS011;5526;42.070;24.752;2023-04-05T01:09:13;2.00;;;1.90;;
10947;SDS011;5526;42.070;24.752;2023-04-05T01:11:56;1.73;;;1.63;;
10947;SDS011;5526;42.070;24.752;2023-04-05T01:14:26;1.77;;;1.67;;
10947;SDS011;5526;42.070;24.752;2023-04-05T01:16:53;2.17;;;2.08;;
10947;SDS011;5526;42.070;24.752;2023-04-05T01:19:23;3.75;;;1.85;;
10947;SDS011;5526;42.070;24.752;2023-04-05T01:25:01;2.30;;;2.20;;
10947;SDS011;5526;42.070;24.752;2023-04-05T01:27:55;2.25;;;2.15;;
10947;SDS011;5526;42.070;24.752;2023-04-05T01:30:40;2.15;;;2.05;;
10947;SDS011;5526;42.070;24.752;2023-04-05T01:33:12;2.40;;;2.30;;
10947;SDS011;5526;42.070;24.752;2023-04-05T01:35:43;1.95;;;1.85;;
10947;SDS011;5526;42.070;24.752;2023-04-05T01:38:18;1.95;;;1.85;;
10947;SDS011;5526;42.070;24.752;2023-04-05T01:40:50;2.28;;;2.17;;
10947;SDS011;5526;42.070;24.752;2023-04-05T01:43:18;2.38;;;2.28;;
10947;SDS011;5526;42.070;24.752;2023-04-05T01:45:47;2.25;;;2.15;;
10947;SDS011;5526;42.070;24.752;2023-04-05T01:48:14;1.85;;;1.75;;
10947;SDS011;5526;42.070;24.752;2023-04-05T01:50:41;1.90;;;1.80;;
10947;SDS011;5526;42.070;24.752;2023-04-05T01:53:08;2.20;;;2.10;;
10947;SDS011;5526;42.070;24.752;2023-04-05T01:55:35;2.00;;;1.90;;
10947;SDS011;5526;42.070;24.752;2023-04-05T01:58:02;1.80;;;1.70;;
10947;SDS011;5526;42.070;24.752;2023-04-05T02:00:29;2.35;;;2.25;;
10947;SDS011;5526;42.070;24.752;2023-04-05T02:02:58;2.00;;;1.90;;
10947;SDS011;5526;42.070;24.752;2023-04-05T02:05:25;2.17;;;2.08;;
10947;SDS011;5526;42.070;24.752;2023-04-05T02:07:52;2.30;;;2.20;;
10947;SDS011;5526;42.070;24.752;2023-04-05T02:10:19;2.65;;;2.45;;
10947;SDS011;5526;42.070;24.752;2023-04-05T02:12:48;2.53;;;2.40;;
10947;SDS011;5526;42.070;24.752;2023-04-05T02:15:15;2.20;;;2.10;;
10947;SDS011;5526;42.070;24.752;2023-04-05T02:17:42;2.40;;;2.30;;
10947;SDS011;5526;42.070;24.752;2023-04-05T02:20:12;2.05;;;1.95;;
10947;SDS011;5526;42.070;24.752;2023-04-05T02:22:39;2.30;;;2.20;;
10947;SDS011;5526;42.070;24.752;2023-04-05T02:25:09;2.60;;;2.40;;
10947;SDS011;5526;42.070;24.752;2023-04-05T02:27:36;2.33;;;2.20;;
10947;SDS011;5526;42.070;24.752;2023-04-05T02:30:04;2.10;;;2.00;;
10947;SDS011;5526;42.070;24.752;2023-04-05T02:32:32;2.65;;;2.53;;
10947;SDS011;5526;42.070;24.752;2023-04-05T02:34:59;2.40;;;2.30;;
10947;SDS011;5526;42.070;24.752;2023-04-05T02:37:28;2.55;;;2.40;;
10947;SDS011;5526;42.070;24.752;2023-04-05T02:39:55;2.75;;;2.63;;
10947;SDS011;5526;42.070;24.752;2023-04-05T02:42:22;2.67;;;2.58;;
10947;SDS011;5526;42.070;24.752;2023-04-05T02:44:50;2.42;;;2.33;;
10947;SDS011;5526;42.070;24.752;2023-04-05T02:47:17;2.97;;;2.78;;
10947;SDS011;5526;42.070;24.752;2023-04-05T02:49:45;2.45;;;2.35;;
10947;SDS011;5526;42.070;24.752;2023-04-05T02:52:13;2.30;;;2.20;;
10947;SDS011;5526;42.070;24.752;2023-04-05T02:54:41;2.58;;;2.42;;
10947;SDS011;5526;42.070;24.752;2023-04-05T02:57:09;2.78;;;2.58;;
10947;SDS011;5526;42.070;24.752;2023-04-05T02:59:36;2.95;;;2.75;;
10947;SDS011;5526;42.070;24.752;2023-04-05T03:02:04;2.80;;;2.60;;
10947;SDS011;5526;42.070;24.752;2023-04-05T03:04:31;3.20;;;2.92;;
10947;SDS011;5526;42.070;24.752;2023-04-05T03:06:58;3.08;;;2.92;;
10947;SDS011;5526;42.070;24.752;2023-04-05T03:09:27;3.30;;;3.10;;
10947;SDS011;5526;42.070;24.752;2023-04-05T03:12:00;3.60;;;3.28;;
10947;SDS011;5526;42.070;24.752;2023-04-05T03:14:28;2.60;;;2.47;;
10947;SDS011;5526;42.070;24.752;2023-04-05T03:16:55;2.63;;;2.50;;
10947;SDS011;5526;42.070;24.752;2023-04-05T03:19:23;2.88;;;2.67;;
10947;SDS011;5526;42.070;24.752;2023-04-05T03:21:50;2.40;;;2.30;;
10947;SDS011;5526;42.070;24.752;2023-04-05T03:24:17;2.28;;;2.17;;
10947;SDS011;5526;42.070;24.752;2023-04-05T03:26:45;2.63;;;2.42;;
10947;SDS011;5526;42.070;24.752;2023-04-05T03:29:14;2.45;;;2.30;;
10947;SDS011;5526;42.070;24.752;2023-04-05T03:31:41;2.83;;;2.63;;
10947;SDS011;5526;42.070;24.752;2023-04-05T03:34:08;2.80;;;2.60;;
10947;SDS011;5526;42.070;24.752;2023-04-05T03:36:35;2.70;;;2.50;;
10947;SDS011;5526;42.070;24.752;2023-04-05T03:39:07;2.97;;;2.78;;
10947;SDS011;5526;42.070;24.752;2023-04-05T03:41:34;2.90;;;2.70;;
10947;SDS011;5526;42.070;24.752;2023-04-05T03:44:01;2.40;;;2.30;;
10947;SDS011;5526;42.070;24.752;2023-04-05T03:46:30;2.88;;;2.72;;
10947;SDS011;5526;42.070;24.752;2023-04-05T03:48:57;2.42;;;2.33;;
10947;SDS011;5526;42.070;24.752;2023-04-05T03:51:25;6.68;;;5.88;;
10947;SDS011;5526;42.070;24.752;2023-04-05T03:53:52;3.50;;;3.30;;
10947;SDS011;5526;42.070;24.752;2023-04-05T03:56:19;2.85;;;2.65;;
10947;SDS011;5526;42.070;24.752;2023-04-05T03:58:46;2.92;;;2.80;;
10947;SDS011;5526;42.070;24.752;2023-04-05T04:01:14;2.72;;;2.53;;
10947;SDS011;5526;42.070;24.752;2023-04-05T04:03:44;4.90;;;4.50;;
10947;SDS011;5526;42.070;24.752;2023-04-05T04:06:11;4.50;;;4.10;;
10947;SDS011;5526;42.070;24.752;2023-04-05T04:08:38;3.60;;;3.40;;
10947;SDS011;5526;42.070;24.752;2023-04-05T04:11:05;3.25;;;3.05;;
10947;SDS011;5526;42.070;24.752;2023-04-05T04:13:32;2.97;;;2.67;;
10947;SDS011;5526;42.070;24.752;2023-04-05T04:15:59;2.92;;;2.72;;
10947;SDS011;5526;42.070;24.752;2023-04-05T04:18:26;2.53;;;2.33;;
10947;SDS011;5526;42.070;24.752;2023-04-05T04:20:55;3.35;;;3.15;;
10947;SDS011;5526;42.070;24.752;2023-04-05T04:23:22;2.88;;;2.67;;
10947;SDS011;5526;42.070;24.752;2023-04-05T04:25:51;2.88;;;2.67;;
10947;SDS011;5526;42.070;24.752;2023-04-05T04:28:19;3.15;;;2.95;;
10947;SDS011;5526;42.070;24.752;2023-04-05T04:30:49;3.15;;;2.95;;
10947;SDS011;5526;42.070;24.752;2023-04-05T04:33:16;3.30;;;3.00;;
10947;SDS011;5526;42.070;24.752;2023-04-05T04:35:44;3.05;;;2.85;;
10947;SDS011;5526;42.070;24.752;2023-04-05T04:38:13;3.65;;;3.35;;
10947;SDS011;5526;42.070;24.752;2023-04-05T04:40:43;4.10;;;3.80;;
10947;SDS011;5526;42.070;24.752;2023-04-05T04:43:12;3.17;;;2.97;;
10947;SDS011;5526;42.070;24.752;2023-04-05T04:45:41;3.92;;;3.53;;
10947;SDS011;5526;42.070;24.752;2023-04-05T04:48:12;4.10;;;3.80;;
10947;SDS011;5526;42.070;24.752;2023-04-05T04:50:40;5.95;;;5.43;;
10947;SDS011;5526;42.070;24.752;2023-04-05T04:53:08;3.65;;;3.25;;
10947;SDS011;5526;42.070;24.752;2023-04-05T04:55:37;4.10;;;3.70;;
10947;SDS011;5526;42.070;24.752;2023-04-05T04:58:06;4.20;;;3.88;;
10947;SDS011;5526;42.070;24.752;2023-04-05T05:00:37;4.35;;;3.97;;
10947;SDS011;5526;42.070;24.752;2023-04-05T05:03:04;4.18;;;3.88;;
10947;SDS011;5526;42.070;24.752;2023-04-05T05:05:32;4.18;;;3.80;;
10947;SDS011;5526;42.070;24.752;2023-04-05T05:07:59;4.05;;;3.75;;
10947;SDS011;5526;42.070;24.752;2023-04-05T05:10:26;4.20;;;3.90;;
10947;SDS011;5526;42.070;24.752;2023-04-05T05:12:55;4.05;;;3.75;;
10947;SDS011;5526;42.070;24.752;2023-04-05T05:15:22;4.05;;;3.78;;
10947;SDS011;5526;42.070;24.752;2023-04-05T05:17:49;3.88;;;3.58;;
10947;SDS011;5526;42.070;24.752;2023-04-05T05:20:17;4.43;;;4.05;;
10947;SDS011;5526;42.070;24.752;2023-04-05T05:22:44;4.00;;;3.70;;
10947;SDS011;5526;42.070;24.752;2023-04-05T05:25:11;3.78;;;3.33;;
10947;SDS011;5526;42.070;24.752;2023-04-05T05:27:38;4.60;;;4.20;;
10947;SDS011;5526;42.070;24.752;2023-04-05T05:30:08;4.13;;;3.83;;
10947;SDS011;5526;42.070;24.752;2023-04-05T05:32:36;4.00;;;3.70;;
10947;SDS011;5526;42.070;24.752;2023-04-05T05:35:03;4.68;;;4.28;;
10947;SDS011;5526;42.070;24.752;2023-04-05T05:37:32;4.63;;;4.28;;
10947;SDS011;5526;42.070;24.752;2023-04-05T05:39:59;4.07;;;3.67;;
10947;SDS011;5526;42.070;24.752;2023-04-05T05:42:28;5.45;;;4.93;;
10947;SDS011;5526;42.070;24.752;2023-04-05T05:44:56;4.80;;;3.97;;
10947;SDS011;5526;42.070;24.752;2023-04-05T05:47:25;4.50;;;4.20;;
10947;SDS011;5526;42.070;24.752;2023-04-05T05:49:52;4.18;;;3.78;;
10947;SDS011;5526;42.070;24.752;2023-04-05T05:52:19;4.07;;;3.78;;
10947;SDS011;5526;42.070;24.752;2023-04-05T05:54:46;3.42;;;3.13;;
10947;SDS011;5526;42.070;24.752;2023-04-05T05:57:13;3.92;;;3.60;;
10947;SDS011;5526;42.070;24.752;2023-04-05T05:59:40;4.28;;;3.95;;
10947;SDS011;5526;42.070;24.752;2023-04-05T06:02:07;4.15;;;3.83;;
10947;SDS011;5526;42.070;24.752;2023-04-05T06:04:36;3.83;;;3.53;;
10947;SDS011;5526;42.070;24.752;2023-04-05T06:07:03;4.18;;;3.80;;
10947;SDS011;5526;42.070;24.752;2023-04-05T06:09:30;5.65;;;4.10;;
10947;SDS011;5526;42.070;24.752;2023-04-05T06:11:59;4.40;;;4.00;;
10947;SDS011;5526;42.070;24.752;2023-04-05T06:14:27;4.35;;;3.92;;
10947;SDS011;5526;42.070;24.752;2023-04-05T06:16:54;3.85;;;3.53;;
10947;SDS011;5526;42.070;24.752;2023-04-05T06:19:21;4.97;;;4.57;;
10947;SDS011;5526;42.070;24.752;2023-04-05T06:21:50;4.90;;;3.75;;
10947;SDS011;5526;42.070;24.752;2023-04-05T06:24:17;3.42;;;3.13;;
10947;SDS011;5526;42.070;24.752;2023-04-05T06:26:43;5.10;;;3.60;;
10947;SDS011;5526;42.070;24.752;2023-04-05T06:29:10;8.82;;;6.78;;
10947;SDS011;5526;42.070;24.752;2023-04-05T06:31:37;3.60;;;3.30;;
10947;SDS011;5526;42.070;24.752;2023-04-05T06:34:05;4.03;;;3.72;;
10947;SDS011;5526;42.070;24.752;2023-04-05T06:36:32;3.30;;;3.10;;
10947;SDS011;5526;42.070;24.752;2023-04-05T06:39:01;2.85;;;2.65;;
10947;SDS011;5526;42.070;24.752;2023-04-05T06:41:28;3.42;;;3.15;;
10947;SDS011;5526;42.070;24.752;2023-04-05T06:43:56;3.30;;;3.00;;
10947;SDS011;5526;42.070;24.752;2023-04-05T06:46:23;4.20;;;3.90;;
10947;SDS011;5526;42.070;24.752;2023-04-05T06:48:50;3.05;;;2.85;;
10947;SDS011;5526;42.070;24.752;2023-04-05T06:51:18;3.30;;;3.10;;
10947;SDS011;5526;42.070;24.752;2023-04-05T06:53:45;3.90;;;2.88;;
10947;SDS011;5526;42.070;24.752;2023-04-05T06:56:14;3.40;;;3.10;;
10947;SDS011;5526;42.070;24.752;2023-04-05T06:58:41;2.88;;;2.78;;
10947;SDS011;5526;42.070;24.752;2023-04-05T07:01:08;3.35;;;3.05;;
10947;SDS011;5526;42.070;24.752;2023-04-05T07:03:35;2.83;;;2.63;;
10947;SDS011;5526;42.070;24.752;2023-04-05T07:06:02;3.30;;;3.00;;
10947;SDS011;5526;42.070;24.752;2023-04-05T07:08:30;2.63;;;2.42;;
10947;SDS011;5526;42.070;24.752;2023-04-05T07:10:58;3.30;;;3.10;;
10947;SDS011;5526;42.070;24.752;2023-04-05T07:13:26;2.88;;;2.67;;
10947;SDS011;5526;42.070;24.752;2023-04-05T07:15:58;3.17;;;2.88;;
10947;SDS011;5526;42.070;24.752;2023-04-05T07:18:26;3.20;;;3.00;;
10947;SDS011;5526;42.070;24.752;2023-04-05T07:20:55;2.97;;;2.78;;
10947;SDS011;5526;42.070;24.752;2023-04-05T07:23:24;3.08;;;2.78;;
10947;SDS011;5526;42.070;24.752;2023-04-05T07:25:52;3.28;;;3.08;;
10947;SDS011;5526;42.070;24.752;2023-04-05T07:28:19;4.03;;;3.30;;
10947;SDS011;5526;42.070;24.752;2023-04-05T07:30:47;3.17;;;2.40;;
10947;SDS011;5526;42.070;24.752;2023-04-05T07:33:14;2.78;;;2.58;;
10947;SDS011;5526;42.070;24.752;2023-04-05T07:35:41;3.22;;;2.78;;
10947;SDS011;5526;42.070;24.752;2023-04-05T07:38:08;3.28;;;3.08;;
10947;SDS011;5526;42.070;24.752;2023-04-05T07:40:36;3.20;;;3.00;;
10947;SDS011;5526;42.070;24.752;2023-04-05T07:43:03;2.95;;;2.75;;
10947;SDS011;5526;42.070;24.752;2023-04-05T07:45:30;3.20;;;3.00;;
10947;SDS011;5526;42.070;24.752;2023-04-05T07:47:58;2.60;;;2.42;;
10947;SDS011;5526;42.070;24.752;2023-04-05T07:50:25;2.85;;;2.72;;
10947;SDS011;5526;42.070;24.752;2023-04-05T07:52:52;3.30;;;3.10;;
10947;SDS011;5526;42.070;24.752;2023-04-05T07:55:19;2.80;;;2.60;;
10947;SDS011;5526;42.070;24.752;2023-04-05T07:57:46;3.00;;;2.80;;
10947;SDS011;5526;42.070;24.752;2023-04-05T08:00:13;3.00;;;2.80;;
10947;SDS011;5526;42.070;24.752;2023-04-05T08:02:41;2.80;;;2.63;;
10947;SDS011;5526;42.070;24.752;2023-04-05T08:05:10;2.80;;;2.67;;
10947;SDS011;5526;42.070;24.752;2023-04-05T08:07:37;2.33;;;2.22;;
10947;SDS011;5526;42.070;24.752;2023-04-05T08:10:04;4.03;;;3.05;;
10947;SDS011;5526;42.070;24.752;2023-04-05T08:12:32;2.97;;;2.67;;
10947;SDS011;5526;42.070;24.752;2023-04-05T08:15:00;3.20;;;3.00;;
10947;SDS011;5526;42.070;24.752;2023-04-05T08:17:27;2.80;;;2.45;;
10947;SDS011;5526;42.070;24.752;2023-04-05T08:19:54;2.05;;;1.95;;
10947;SDS011;5526;42.070;24.752;2023-04-05T08:22:26;2.13;;;2.03;;
10947;SDS011;5526;42.070;24.752;2023-04-05T08:24:54;2.67;;;2.47;;
10947;SDS011;5526;42.070;24.752;2023-04-05T08:27:21;2.97;;;2.78;;
10947;SDS011;5526;42.070;24.752;2023-04-05T08:29:48;2.88;;;2.67;;
10947;SDS011;5526;42.070;24.752;2023-04-05T08:32:15;2.55;;;2.40;;
10947;SDS011;5526;42.070;24.752;2023-04-05T08:34:42;2.50;;;2.40;;
10947;SDS011;5526;42.070;24.752;2023-04-05T08:37:09;2.60;;;2.40;;
10947;SDS011;5526;42.070;24.752;2023-04-05T08:39:37;2.40;;;2.20;;
10947;SDS011;5526;42.070;24.752;2023-04-05T08:42:07;2.00;;;1.90;;
10947;SDS011;5526;42.070;24.752;2023-04-05T08:44:36;2.92;;;2.70;;
10947;SDS011;5526;42.070;24.752;2023-04-05T08:47:07;2.25;;;2.10;;
10947;SDS011;5526;42.070;24.752;2023-04-05T08:49:41;2.75;;;2.58;;
10947;SDS011;5526;42.070;24.752;2023-04-05T08:52:08;2.72;;;2.10;;
10947;SDS011;5526;42.070;24.752;2023-04-05T08:54:37;2.35;;;2.25;;
10947;SDS011;5526;42.070;24.752;2023-04-05T08:57:04;2.40;;;2.20;;
10947;SDS011;5526;42.070;24.752;2023-04-05T08:59:32;2.55;;;2.35;;
10947;SDS011;5526;42.070;24.752;2023-04-05T09:02:05;2.40;;;2.20;;
10947;SDS011;5526;42.070;24.752;2023-04-05T09:04:37;2.30;;;2.13;;
10947;SDS011;5526;42.070;24.752;2023-04-05T09:07:09;2.05;;;1.95;;
10947;SDS011;5526;42.070;24.752;2023-04-05T09:09:41;2.35;;;2.17;;
10947;SDS011;5526;42.070;24.752;2023-04-05T09:12:12;2.00;;;1.90;;
10947;SDS011;5526;42.070;24.752;2023-04-05T09:14:40;1.92;;;1.70;;
10947;SDS011;5526;42.070;24.752;2023-04-05T09:17:07;1.90;;;1.80;;
10947;SDS011;5526;42.070;24.752;2023-04-05T09:19:35;1.42;;;1.33;;
10947;SDS011;5526;42.070;24.752;2023-04-05T09:22:02;2.03;;;1.92;;
10947;SDS011;5526;42.070;24.752;2023-04-05T09:24:31;2.80;;;1.80;;
10947;SDS011;5526;42.070;24.752;2023-04-05T09:27:07;1.52;;;1.42;;
10947;SDS011;5526;42.070;24.752;2023-04-05T09:29:35;1.60;;;1.50;;
10947;SDS011;5526;42.070;24.752;2023-04-05T09:32:03;1.85;;;1.60;;
10947;SDS011;5526;42.070;24.752;2023-04-05T09:34:31;1.13;;;1.13;;
10947;SDS011;5526;42.070;24.752;2023-04-05T09:37:01;1.33;;;1.30;;
10947;SDS011;5526;42.070;24.752;2023-04-05T09:39:29;1.15;;;1.05;;
10947;SDS011;5526;42.070;24.752;2023-04-05T09:42:03;1.65;;;1.40;;
10947;SDS011;5526;42.070;24.752;2023-04-05T09:44:49;1.38;;;1.27;;
10947;SDS011;5526;42.070;24.752;2023-04-05T09:47:20;1.60;;;1.20;;
10947;SDS011;5526;42.070;24.752;2023-04-05T09:49:49;1.48;;;1.38;;
10947;SDS011;5526;42.070;24.752;2023-04-05T09:52:17;2.42;;;1.48;;
10947;SDS011;5526;42.070;24.752;2023-04-05T09:54:48;1.55;;;1.45;;
10947;SDS011;5526;42.070;24.752;2023-04-05T09:57:18;1.30;;;1.30;;
10947;SDS011;5526;42.070;24.752;2023-04-05T09:59:45;1.65;;;1.55;;
10947;SDS011;5526;42.070;24.752;2023-04-05T10:02:14;2.20;;;2.10;;
10947;SDS011;5526;42.070;24.752;2023-04-05T10:04:42;2.05;;;1.90;;
10947;SDS011;5526;42.070;24.752;2023-04-05T10:07:10;2.05;;;1.83;;
10947;SDS011;5526;42.070;24.752;2023-04-05T10:09:38;2.17;;;2.08;;
10947;SDS011;5526;42.070;24.752;2023-04-05T10:12:06;2.35;;;2.20;;
10947;SDS011;5526;42.070;24.752;2023-04-05T10:14:34;2.92;;;2.70;;
10947;SDS011;5526;42.070;24.752;2023-04-05T10:17:05;2.25;;;2.15;;
10947;SDS011;5526;42.070;24.752;2023-04-05T10:19:40;2.15;;;2.05;;
10947;SDS011;5526;42.070;24.752;2023-04-05T10:22:22;1.90;;;1.80;;
10947;SDS011;5526;42.070;24.752;2023-04-05T10:24:54;1.70;;;1.60;;
10947;SDS011;5526;42.070;24.752;2023-04-05T10:27:28;2.30;;;2.20;;
10947;SDS011;5526;42.070;24.752;2023-04-05T10:30:02;2.30;;;1.83;;
10947;SDS011;5526;42.070;24.752;2023-04-05T10:32:40;1.52;;;1.42;;
10947;SDS011;5526;42.070;24.752;2023-04-05T10:35:22;1.50;;;1.48;;
10947;SDS011;5526;42.070;24.752;2023-04-05T10:37:58;1.95;;;1.58;;
10947;SDS011;5526;42.070;24.752;2023-04-05T10:40:45;2.30;;;2.13;;
10947;SDS011;5526;42.070;24.752;2023-04-05T10:43:16;2.28;;;2.17;;
10947;SDS011;5526;42.070;24.752;2023-04-05T10:45:47;2.60;;;2.40;;
10947;SDS011;5526;42.070;24.752;2023-04-05T10:48:19;4.85;;;4.03;;
10947;SDS011;5526;42.070;24.752;2023-04-05T10:50:55;2.80;;;2.60;;
10947;SDS011;5526;42.070;24.752;2023-04-05T10:53:24;3.08;;;2.80;;
10947;SDS011;5526;42.070;24.752;2023-04-05T10:55:52;4.15;;;2.92;;
10947;SDS011;5526;42.070;24.752;2023-04-05T10:58:23;2.58;;;2.25;;
10947;SDS011;5526;42.070;24.752;2023-04-05T11:00:51;3.25;;;2.90;;
10947;SDS011;5526;42.070;24.752;2023-04-05T11:06:19;2.70;;;2.50;;
10947;SDS011;5526;42.070;24.752;2023-04-05T11:08:49;2.75;;;2.58;;
10947;SDS011;5526;42.070;24.752;2023-04-05T11:11:20;2.30;;;2.20;;
10947;SDS011;5526;42.070;24.752;2023-04-05T11:13:49;2.78;;;2.58;;
10947;SDS011;5526;42.070;24.752;2023-04-05T11:16:18;2.50;;;2.30;;
10947;SDS011;5526;42.070;24.752;2023-04-05T11:18:46;2.47;;;2.38;;
10947;SDS011;5526;42.070;24.752;2023-04-05T11:21:22;2.28;;;2.17;;
10947;SDS011;5526;42.070;24.752;2023-04-05T11:23:59;2.65;;;2.45;;
10947;SDS011;5526;42.070;24.752;2023-04-05T11:32:18;2.03;;;1.92;;
10947;SDS011;5526;42.070;24.752;2023-04-05T11:34:56;1.83;;;1.70;;
10947;SDS011;5526;42.070;24.752;2023-04-05T11:40:34;2.50;;;2.30;;
10947;SDS011;5526;42.070;24.752;2023-04-05T11:43:02;2.20;;;2.10;;
10947;SDS011;5526;42.070;24.752;2023-04-05T11:45:32;1.92;;;1.80;;
10947;SDS011;5526;42.070;24.752;2023-04-05T11:48:01;2.00;;;1.90;;
10947;SDS011;5526;42.070;24.752;2023-04-05T11:50:30;1.88;;;1.77;;
10947;SDS011;5526;42.070;24.752;2023-04-05T11:53:12;1.70;;;1.58;;
10947;SDS011;5526;42.070;24.752;2023-04-05T11:55:40;2.63;;;2.15;;
10947;SDS011;5526;42.070;24.752;2023-04-05T11:58:11;2.40;;;2.30;;
10947;SDS011;5526;42.070;24.752;2023-04-05T12:00:39;2.10;;;2.00;;
10947;SDS011;5526;42.070;24.752;2023-04-05T12:03:09;2.03;;;1.92;;
10947;SDS011;5526;42.070;24.752;2023-04-05T12:05:44;1.80;;;1.70;;
10947;SDS011;5526;42.070;24.752;2023-04-05T12:08:14;2.00;;;1.90;;
10947;SDS011;5526;42.070;24.752;2023-04-05T12:10:41;2.33;;;2.22;;
10947;SDS011;5526;42.070;24.752;2023-04-05T12:13:08;2.67;;;2.47;;
10947;SDS011;5526;42.070;24.752;2023-04-05T12:15:36;2.40;;;2.20;;
10947;SDS011;5526;42.070;24.752;2023-04-05T12:18:10;2.10;;;2.00;;
10947;SDS011;5526;42.070;24.752;2023-04-05T12:20:39;1.90;;;1.80;;
10947;SDS011;5526;42.070;24.752;2023-04-05T12:23:07;2.15;;;2.05;;
10947;SDS011;5526;42.070;24.752;2023-04-05T12:25:36;1.80;;;1.70;;
10947;SDS011;5526;42.070;24.752;2023-04-05T12:28:04;2.30;;;2.10;;
10947;SDS011;5526;42.070;24.752;2023-04-05T12:30:33;1.70;;;1.60;;
10947;SDS011;5526;42.070;24.752;2023-04-05T12:33:05;1.40;;;1.40;;
10947;SDS011;5526;42.070;24.752;2023-04-05T12:35:33;1.30;;;1.30;;
10947;SDS011;5526;42.070;24.752;2023-04-05T12:38:00;2.92;;;2.72;;
10947;SDS011;5526;42.070;24.752;2023-04-05T12:40:29;1.42;;;1.33;;
10947;SDS011;5526;42.070;24.752;2023-04-05T12:43:01;1.50;;;1.50;;
10947;SDS011;5526;42.070;24.752;2023-04-05T12:45:29;2.72;;;1.80;;
10947;SDS011;5526;42.070;24.752;2023-04-05T12:48:06;2.50;;;2.30;;
10947;SDS011;5526;42.070;24.752;2023-04-05T12:50:34;3.05;;;2.75;;
10947;SDS011;5526;42.070;24.752;2023-04-05T12:53:04;2.85;;;2.65;;
10947;SDS011;5526;42.070;24.752;2023-04-05T12:55:32;2.13;;;2.03;;
10947;SDS011;5526;42.070;24.752;2023-04-05T12:58:09;2.63;;;2.42;;
10947;SDS011;5526;42.070;24.752;2023-04-05T13:00:37;2.45;;;2.35;;
10947;SDS011;5526;42.070;24.752;2023-04-05T13:03:04;2.13;;;2.03;;
10947;SDS011;5526;42.070;24.752;2023-04-05T13:05:31;2.05;;;1.88;;
10947;SDS011;5526;42.070;24.752;2023-04-05T13:07:58;2.75;;;2.47;;
10947;SDS011;5526;42.070;24.752;2023-04-05T13:10:25;2.70;;;2.50;;
10947;SDS011;5526;42.070;24.752;2023-04-05T13:12:52;3.47;;;3.28;;
10947;SDS011;5526;42.070;24.752;2023-04-05T13:15:21;2.83;;;2.63;;
10947;SDS011;5526;42.070;24.752;2023-04-05T13:17:48;4.32;;;3.83;;
10947;SDS011;5526;42.070;24.752;2023-04-05T13:20:17;4.85;;;4.40;;
10947;SDS011;5526;42.070;24.752;2023-04-05T13:22:44;3.47;;;3.17;;
10947;SDS011;5526;42.070;24.752;2023-04-05T13:25:11;3.08;;;2.88;;
10947;SDS011;5526;42.070;24.752;2023-04-05T13:27:39;5.70;;;5.18;;
10947;SDS011;5526;42.070;24.752;2023-04-05T13:30:07;3.88;;;3.50;;
10947;SDS011;5526;42.070;24.752;2023-04-05T13:32:35;3.10;;;2.90;;
10947;SDS011;5526;42.070;24.752;2023-04-05T13:35:03;2.38;;;2.28;;
10947;SDS011;5526;42.070;24.752;2023-04-05T13:37:31;3.30;;;3.00;;
10947;SDS011;5526;42.070;24.752;2023-04-05T13:39:58;2.45;;;2.28;;
10947;SDS011;5526;42.070;24.752;2023-04-05T13:42:25;2.35;;;1.80;;
10947;SDS011;5526;42.070;24.752;2023-04-05T13:44:52;3.10;;;2.90;;
10947;SDS011;5526;42.070;24.752;2023-04-05T13:47:19;4.03;;;2.42;;
10947;SDS011;5526;42.070;24.752;2023-04-05T13:49:47;2.10;;;2.00;;
10947;SDS011;5526;42.070;24.752;2023-04-05T13:52:14;2.65;;;2.45;;
10947;SDS011;5526;42.070;24.752;2023-04-05T13:54:42;3.22;;;2.92;;
10947;SDS011;5526;42.070;24.752;2023-04-05T13:57:09;2.60;;;2.40;;
10947;SDS011;5526;42.070;24.752;2023-04-05T13:59:38;2.08;;;1.98;;
10947;SDS011;5526;42.070;24.752;2023-04-05T14:02:05;2.50;;;2.30;;
10947;SDS011;5526;42.070;24.752;2023-04-05T14:04:32;2.13;;;2.03;;
10947;SDS011;5526;42.070;24.752;2023-04-05T14:07:01;3.60;;;3.30;;
10947;SDS011;5526;42.070;24.752;2023-04-05T14:09:28;2.38;;;2.28;;
10947;SDS011;5526;42.070;24.752;2023-04-05T14:11:58;3.00;;;2.80;;
10947;SDS011;5526;42.070;24.752;2023-04-05T14:14:26;3.08;;;2.63;;
10947;SDS011;5526;42.070;24.752;2023-04-05T14:16:54;2.30;;;2.20;;
10947;SDS011;5526;42.070;24.752;2023-04-05T14:19:21;2.47;;;2.28;;
10947;SDS011;5526;42.070;24.752;2023-04-05T14:21:48;3.20;;;3.00;;
10947;SDS011;5526;42.070;24.752;2023-04-05T14:24:18;2.60;;;2.50;;
10947;SDS011;5526;42.070;24.752;2023-04-05T14:26:45;3.00;;;2.80;;
10947;SDS011;5526;42.070;24.752;2023-04-05T14:29:14;2.92;;;2.65;;
10947;SDS011;5526;42.070;24.752;2023-04-05T14:31:41;2.95;;;2.75;;
10947;SDS011;5526;42.070;24.752;2023-04-05T14:34:08;2.63;;;2.42;;
10947;SDS011;5526;42.070;24.752;2023-04-05T14:36:35;2.35;;;2.08;;
10947;SDS011;5526;42.070;24.752;2023-04-05T14:39:03;2.33;;;2.22;;
10947;SDS011;5526;42.070;24.752;2023-04-05T14:41:31;3.60;;;2.70;;
10947;SDS011;5526;42.070;24.752;2023-04-05T14:43:59;2.70;;;2.50;;
10947;SDS011;5526;42.070;24.752;2023-04-05T14:46:26;3.70;;;3.40;;
10947;SDS011;5526;42.070;24.752;2023-04-05T14:48:53;5.13;;;4.70;;
10947;SDS011;5526;42.070;24.752;2023-04-05T14:51:20;3.40;;;3.20;;
10947;SDS011;5526;42.070;24.752;2023-04-05T14:53:47;2.58;;;2.38;;
10947;SDS011;5526;42.070;24.752;2023-04-05T14:56:15;3.10;;;2.90;;
10947;SDS011;5526;42.070;24.752;2023-04-05T14:58:43;4.00;;;3.70;;
10947;SDS011;5526;42.070;24.752;2023-04-05T15:01:10;4.68;;;4.30;;
10947;SDS011;5526;42.070;24.752;2023-04-05T15:03:38;3.40;;;3.20;;
10947;SDS011;5526;42.070;24.752;2023-04-05T15:06:05;3.25;;;3.05;;
10947;SDS011;5526;42.070;24.752;2023-04-05T15:08:33;3.22;;;3.03;;
10947;SDS011;5526;42.070;24.752;2023-04-05T15:11:00;3.47;;;3.17;;
10947;SDS011;5526;42.070;24.752;2023-04-05T15:13:27;3.30;;;3.10;;